Terminal Aerodrome Forecast
Issued by NWS Wilmington, OH

Home | Current Version | Previous Version | Text Only | Print | Product List | Glossary On
Versions: 1 2 3 4 5 6 7 8 9 10 11 12 13 14 15 16 17 18 19 20 21 22 23 24
000
FTUS41 KILN 161456 AAA
TAFCVG
TAF AMD
KCVG 161456Z 1615/1718 18005KT P6SM FEW035 SCT250
     FM161800 19005KT P6SM BKN045
     FM170300 17005KT P6SM VCTS BKN050CB
     FM171400 20008KT P6SM VCTS BKN040CB=

USA.gov is the U.S. government's official web portal to all federal, state and local government web resources and services.